createdAt,value
2018-12-13T00:01:11.483Z,-0.05
2018-12-13T00:04:20.293Z,-0.06
2018-12-13T00:07:26.232Z,-0.33
2018-12-13T00:10:32.775Z,-0.36
2018-12-13T00:13:39.602Z,-0.47
2018-12-13T00:16:45.593Z,-0.42
2018-12-13T00:19:51.474Z,-0.36
2018-12-13T00:22:57.087Z,-0.37
2018-12-13T00:26:03.124Z,-0.19
2018-12-13T00:29:08.713Z,-0.25
2018-12-13T00:32:14.310Z,0.08
2018-12-13T00:35:19.957Z,-0.21
2018-12-13T00:38:25.931Z,-0.09
2018-12-13T00:41:31.517Z,-0.12
2018-12-13T00:44:37.164Z,-0.14
2018-12-13T00:47:43.126Z,-0.20
2018-12-13T00:50:49.288Z,-0.42
2018-12-13T00:53:55.480Z,-0.23
2018-12-13T00:57:01.412Z,-0.21
2018-12-13T01:00:08.474Z,-0.18
2018-12-13T01:03:14.382Z,-0.36
2018-12-13T01:06:20.992Z,-0.42
2018-12-13T01:09:27.329Z,-0.48
2018-12-13T01:12:33.428Z,-0.51
2018-12-13T01:15:39.302Z,-0.39
2018-12-13T01:18:45.196Z,-0.45
2018-12-13T01:21:50.789Z,-0.41
2018-12-13T01:24:56.659Z,-0.32
2018-12-13T01:28:03.024Z,-0.42
2018-12-13T01:31:08.918Z,-0.43
2018-12-13T01:34:14.796Z,-0.58
2018-12-13T01:37:21.047Z,-0.65
2018-12-13T01:40:26.916Z,-0.46
2018-12-13T01:43:32.816Z,-0.71
2018-12-13T01:46:40.995Z,-0.99
2018-12-13T01:49:48.993Z,-0.83
2018-12-13T01:52:56.580Z,-0.68
2018-12-13T01:56:04.338Z,-0.52
2018-12-13T01:59:11.884Z,-0.60
2018-12-13T02:02:19.331Z,-0.67
2018-12-13T02:05:26.294Z,-1.09
2018-12-13T02:08:34.113Z,-1.33
2018-12-13T02:11:41.276Z,-1.04
2018-12-13T02:14:48.559Z,-0.84
2018-12-13T02:17:55.863Z,-0.86
2018-12-13T02:21:04.390Z,-0.81
2018-12-13T02:24:11.378Z,-0.67
2018-12-13T02:27:18.975Z,-0.71
2018-12-13T02:30:26.458Z,-0.99
2018-12-13T02:33:33.469Z,-1.05
2018-12-13T02:36:40.090Z,-1.24
2018-12-13T02:39:46.379Z,-1.09
2018-12-13T02:42:52.254Z,-0.82
2018-12-13T02:45:58.279Z,-0.82
2018-12-13T02:49:10.543Z,-0.90
2018-12-13T02:52:16.425Z,-0.86
2018-12-13T02:55:22.316Z,-0.93
2018-12-13T02:58:28.220Z,-0.85
2018-12-13T03:01:33.809Z,-0.99
2018-12-13T03:04:39.696Z,-0.96
2018-12-13T03:07:45.619Z,-0.94
2018-12-13T03:10:51.248Z,-1.13
2018-12-13T03:13:57.058Z,-0.82
2018-12-13T03:17:04.186Z,-0.83
2018-12-13T03:20:10.504Z,-0.94
2018-12-13T03:23:16.106Z,-1.11
2018-12-13T03:26:22.658Z,-1.18
2018-12-13T03:29:28.287Z,-1.15
2018-12-13T03:32:34.162Z,-1.19
2018-12-13T03:35:40.062Z,-1.41
2018-12-13T03:38:45.644Z,-1.46
2018-12-13T03:41:51.691Z,-1.62
2018-12-13T03:44:57.610Z,-1.73
2018-12-13T03:48:03.490Z,-1.72
2018-12-13T03:51:09.529Z,-1.77
2018-12-13T03:54:15.483Z,-1.87
2018-12-13T03:57:21.370Z,-1.82
2018-12-13T04:00:27.262Z,-1.82
2018-12-13T04:03:33.141Z,-1.79
2018-12-13T04:06:39.013Z,-2.07
2018-12-13T04:09:44.627Z,-2.12
2018-12-13T04:12:50.534Z,-2.11
2018-12-13T04:15:56.195Z,-2.16
2018-12-13T04:19:02.571Z,-1.92
2018-12-13T04:22:09.060Z,-1.92
2018-12-13T04:25:14.949Z,-1.93
2018-12-13T04:28:20.815Z,-2.04
2018-12-13T04:31:27.226Z,-2.18
2018-12-13T04:34:33.141Z,-2.11
2018-12-13T04:37:39.052Z,-2.42
2018-12-13T04:40:44.932Z,-2.30
2018-12-13T04:43:50.884Z,-2.29
2018-12-13T04:46:58.773Z,-1.89
2018-12-13T04:50:06.617Z,-1.91
2018-12-13T04:53:12.760Z,-1.95
2018-12-13T04:56:18.966Z,-2.29
2018-12-13T04:59:24.922Z,-2.34
2018-12-13T05:02:30.769Z,-2.42
2018-12-13T05:05:36.848Z,-2.98
2018-12-13T05:08:43.159Z,-2.75
2018-12-13T05:11:48.788Z,-2.89
2018-12-13T05:14:55.036Z,-2.82
2018-12-13T05:18:00.919Z,-2.52
2018-12-13T05:21:07.268Z,-2.62
2018-12-13T05:24:13.462Z,-2.73
2018-12-13T05:27:25.849Z,-2.81
2018-12-13T05:30:33.182Z,-3.22
2018-12-13T05:33:41.004Z,-3.04
2018-12-13T05:36:46.662Z,-2.84
2018-12-13T05:39:52.270Z,-3.20
2018-12-13T05:42:57.846Z,-3.93
2018-12-13T05:46:03.616Z,-3.17
2018-12-13T05:49:09.566Z,-2.93
2018-12-13T05:52:15.472Z,-3.20
2018-12-13T05:55:21.395Z,-2.93
2018-12-13T05:58:27.261Z,-2.87
2018-12-13T06:01:39.582Z,-3.02
2018-12-13T06:04:45.474Z,-3.24
2018-12-13T06:07:54.884Z,-3.86
2018-12-13T06:10:59.392Z,-3.61
2018-12-13T06:14:05.286Z,-3.16
2018-12-13T06:17:11.195Z,-3.10
2018-12-13T06:20:17.159Z,-3.50
2018-12-13T06:23:23.307Z,-4.04
2018-12-13T06:26:29.196Z,-3.93
2018-12-13T06:29:41.593Z,-4.48
2018-12-13T06:32:42.760Z,-3.73
2018-12-13T06:35:48.672Z,-4.29
2018-12-13T06:38:54.713Z,-3.71
2018-12-13T06:42:00.609Z,-3.57
2018-12-13T06:45:08.261Z,-3.27
2018-12-13T06:48:14.236Z,-3.77
2018-12-13T06:51:20.348Z,-4.64
2018-12-13T06:54:26.232Z,-3.98
2018-12-13T06:57:32.111Z,-3.34
2018-12-13T07:00:38.385Z,-3.58
2018-12-13T07:03:44.280Z,-3.78
2018-12-13T07:06:50.995Z,-3.45
2018-12-13T07:09:57.037Z,-3.58
2018-12-13T07:13:02.654Z,-3.55
2018-12-13T07:16:08.313Z,-3.57
2018-12-13T07:19:13.966Z,-3.61
2018-12-13T07:22:19.597Z,-4.01
2018-12-13T07:25:25.207Z,-3.64
2018-12-13T07:28:30.879Z,-3.24
2018-12-13T07:31:36.495Z,-3.98
2018-12-13T07:34:42.098Z,-3.33
2018-12-13T07:37:47.835Z,-3.10
2018-12-13T07:40:54.010Z,-2.99
2018-12-13T07:43:59.876Z,-2.86
2018-12-13T07:47:05.815Z,-3.15
2018-12-13T07:50:11.863Z,-3.45
2018-12-13T07:53:17.809Z,-3.15
2018-12-13T07:56:23.719Z,-3.05
2018-12-13T07:59:29.592Z,-3.26
2018-12-13T08:02:35.218Z,-3.03
2018-12-13T08:05:40.833Z,-2.95
2018-12-13T08:08:46.433Z,-2.82
2018-12-13T08:11:52.327Z,-2.97
2018-12-13T08:14:58.153Z,-2.85
2018-12-13T08:18:03.740Z,-2.71
2018-12-13T08:21:11.314Z,-2.74
2018-12-13T08:24:17.188Z,-2.78
2018-12-13T08:27:24.490Z,-2.59
2018-12-13T08:30:30.392Z,-2.59
2018-12-13T08:33:37.021Z,-2.70
2018-12-13T08:36:42.617Z,-2.63
2018-12-13T08:39:48.211Z,-2.71
2018-12-13T08:42:54.462Z,-2.96
2018-12-13T08:46:00.512Z,-2.86
2018-12-13T08:49:07.174Z,-3.24
2018-12-13T08:52:13.696Z,-3.14
2018-12-13T08:55:19.588Z,-3.20
2018-12-13T08:58:25.183Z,-3.01
2018-12-13T09:01:31.060Z,-2.86
2018-12-13T09:04:36.634Z,-2.87
2018-12-13T09:07:42.242Z,-2.96
2018-12-13T09:10:48.225Z,-2.75
2018-12-13T09:13:53.844Z,-2.82
2018-12-13T09:16:59.765Z,-2.75
2018-12-13T09:20:07.202Z,-2.40
2018-12-13T09:23:13.100Z,-2.46
2018-12-13T09:26:19.277Z,-2.23
2018-12-13T09:29:26.214Z,-2.17
2018-12-13T09:32:32.115Z,-2.12
2018-12-13T09:35:37.709Z,-2.28
2018-12-13T09:38:43.923Z,-2.26
2018-12-13T09:41:49.832Z,-2.26
2018-12-13T09:44:55.869Z,-2.23
2018-12-13T09:48:01.482Z,-2.20
2018-12-13T09:51:07.117Z,-2.04
2018-12-13T09:54:12.983Z,-1.95
2018-12-13T09:57:19.354Z,-2.03
2018-12-13T10:00:25.572Z,-1.99
2018-12-13T10:03:31.623Z,-1.91
2018-12-13T10:06:37.522Z,-1.84
2018-12-13T10:09:43.407Z,-1.88
2018-12-13T10:12:49.207Z,-1.87
2018-12-13T10:15:55.388Z,-1.73
2018-12-13T10:19:01.255Z,-1.69
2018-12-13T10:22:11.612Z,-1.77
2018-12-13T10:25:15.248Z,-1.72
2018-12-13T10:28:21.497Z,-1.59
2018-12-13T10:31:27.386Z,-1.61
2018-12-13T10:34:32.981Z,-1.51
2018-12-13T10:37:38.592Z,-1.56
2018-12-13T10:40:44.440Z,-1.42
2018-12-13T10:43:52.901Z,-1.41
2018-12-13T10:46:59.248Z,-1.46
2018-12-13T10:50:07.192Z,-1.37
2018-12-13T10:53:13.069Z,-1.34
2018-12-13T10:56:18.961Z,-1.35
2018-12-13T10:59:24.769Z,-1.31
2018-12-13T11:03:40.873Z,-1.23
2018-12-13T11:06:46.741Z,-1.17
2018-12-13T11:09:52.471Z,-1.20
2018-12-13T11:12:58.114Z,-1.16
2018-12-13T11:16:04.022Z,-1.15
2018-12-13T11:19:09.668Z,-1.19
2018-12-13T11:22:15.291Z,-1.10
2018-12-13T11:25:21.275Z,-1.13
2018-12-13T11:30:06.537Z,-1.08
2018-12-13T11:33:13.580Z,-1.07
2018-12-13T11:36:21.126Z,-0.47
2018-12-13T11:39:27.066Z,-0.76
2018-12-13T11:42:32.951Z,-0.73
2018-12-13T11:45:38.997Z,0.18
2018-12-13T11:48:44.913Z,-0.45
2018-12-13T11:51:50.767Z,-0.50
2018-12-13T11:55:00.158Z,-0.18
2018-12-13T11:58:13.389Z,-0.41
2018-12-13T12:01:18.973Z,-0.01
2018-12-13T12:04:25.153Z,0.03
2018-12-13T12:07:30.895Z,-0.13
2018-12-13T12:10:36.511Z,0.53
2018-12-13T12:13:42.839Z,-0.05
2018-12-13T12:16:48.700Z,0.43
2018-12-13T12:19:55.479Z,0.39
2018-12-13T12:23:01.354Z,-0.12
2018-12-13T12:26:06.939Z,0.32
2018-12-13T12:29:13.873Z,-0.01
2018-12-13T12:32:19.773Z,-0.15
2018-12-13T12:35:25.382Z,0.41
2018-12-13T12:38:31.272Z,-0.10
2018-12-13T12:41:36.988Z,-0.35
2018-12-13T12:44:42.776Z,-0.41
2018-12-13T12:47:48.381Z,-0.29
2018-12-13T12:50:54.231Z,-0.61
2018-12-13T12:53:59.844Z,-0.55
2018-12-13T12:57:05.868Z,-0.63
2018-12-13T13:00:12.217Z,-0.46
2018-12-13T13:03:18.087Z,-0.50
2018-12-13T13:06:23.671Z,0.11
2018-12-13T13:09:29.531Z,0.09
2018-12-13T13:12:35.532Z,-0.16
2018-12-13T13:15:41.361Z,-0.16
2018-12-13T13:18:47.360Z,-0.49
2018-12-13T13:21:53.224Z,-0.65
2018-12-13T13:24:59.116Z,-0.77
2018-12-13T13:28:05.212Z,-0.81
2018-12-13T13:31:11.091Z,-1.03
2018-12-13T13:34:23.966Z,-0.86
2018-12-13T13:37:32.849Z,-0.94
2018-12-13T13:40:38.767Z,-0.95
2018-12-13T13:43:44.663Z,-1.04
2018-12-13T13:46:50.259Z,-1.02
2018-12-13T13:49:56.169Z,-0.89
2018-12-13T13:53:01.771Z,-1.01
2018-12-13T13:56:07.639Z,-1.08
2018-12-13T13:59:13.254Z,-1.09
2018-12-13T14:02:19.441Z,-1.22
2018-12-13T14:05:25.334Z,-1.30
2018-12-13T14:08:31.242Z,-1.20
2018-12-13T14:11:37.129Z,-1.29
2018-12-13T14:14:44.292Z,-1.28
2018-12-13T14:17:50.291Z,-1.31
2018-12-13T14:20:56.164Z,-1.20
2018-12-13T14:24:02.026Z,-1.19
2018-12-13T14:27:07.937Z,-1.22
2018-12-13T14:30:13.808Z,-1.22
2018-12-13T14:33:19.973Z,-1.27
2018-12-13T14:36:25.827Z,-1.31
2018-12-13T14:39:32.493Z,-1.22
2018-12-13T14:42:40.564Z,-1.22
2018-12-13T14:45:46.154Z,-1.21
2018-12-13T14:48:52.035Z,-1.22
2018-12-13T14:51:57.599Z,-1.21
2018-12-13T14:55:03.945Z,-0.93
2018-12-13T14:58:09.873Z,-0.77
2018-12-13T15:01:15.735Z,-0.79
2018-12-13T15:04:21.634Z,-0.50
2018-12-13T15:07:28.267Z,-0.73
2018-12-13T15:10:34.106Z,-0.46
2018-12-13T15:13:40.006Z,-0.77
2018-12-13T15:16:45.706Z,-0.18
2018-12-13T15:19:51.398Z,-0.33
2018-12-13T15:22:57.027Z,-0.67
2018-12-13T15:26:02.612Z,-0.59
2018-12-13T15:29:09.312Z,-0.35
2018-12-13T15:32:15.178Z,-0.48
2018-12-13T15:35:21.298Z,-0.64
2018-12-13T15:38:26.863Z,-0.42
2018-12-13T15:41:32.725Z,-0.35
2018-12-13T15:44:38.375Z,-0.29
2018-12-13T15:47:43.957Z,-0.16
2018-12-13T15:50:49.921Z,-0.39
2018-12-13T15:53:55.862Z,-0.48
2018-12-13T15:57:01.420Z,-0.19
2018-12-13T16:00:09.894Z,-0.88
2018-12-13T16:03:17.485Z,-0.61
2018-12-13T16:06:23.369Z,-0.67
2018-12-13T16:09:29.236Z,-0.63
2018-12-13T16:12:35.698Z,-0.86
2018-12-13T16:15:41.608Z,-0.85
2018-12-13T16:18:48.860Z,-0.93
2018-12-13T16:21:55.463Z,-1.12
2018-12-13T16:25:02.278Z,-0.40
2018-12-13T16:28:09.565Z,-0.81
2018-12-13T16:31:16.413Z,-0.81
2018-12-13T16:34:23.602Z,-0.36
2018-12-13T16:37:30.843Z,-0.56
2018-12-13T16:40:39.428Z,-0.32
2018-12-13T16:43:47.369Z,-0.46
2018-12-13T16:46:54.660Z,-0.75
2018-12-13T16:50:00.727Z,-1.12
2018-12-13T16:53:06.567Z,-0.91
2018-12-13T16:56:13.173Z,-0.66
2018-12-13T16:59:19.971Z,-0.43
2018-12-13T17:02:25.831Z,-0.36
2018-12-13T17:05:32.423Z,-0.96
2018-12-13T17:08:38.987Z,-0.99
2018-12-13T17:11:44.883Z,-1.18
2018-12-13T17:14:50.760Z,-1.25
2018-12-13T17:17:56.366Z,-1.03
2018-12-13T17:21:02.248Z,-1.42
2018-12-13T17:24:07.824Z,-1.15
2018-12-13T17:27:13.920Z,-1.14
2018-12-13T17:30:20.850Z,-1.28
2018-12-13T17:33:26.781Z,-1.11
2018-12-13T17:36:32.673Z,-1.07
2018-12-13T17:39:38.538Z,-1.08
2018-12-13T17:42:44.417Z,-1.11
2018-12-13T17:45:50.076Z,-1.30
2018-12-13T17:48:55.696Z,-1.16
2018-12-13T17:52:06.874Z,-1.18
2018-12-13T17:55:13.055Z,-1.30
2018-12-13T17:58:19.255Z,-1.26
2018-12-13T18:01:25.151Z,-1.20
2018-12-13T18:04:31.041Z,-1.20
2018-12-13T18:07:38.200Z,-1.16
2018-12-13T18:10:43.812Z,-1.11
2018-12-13T18:13:49.426Z,-1.21
2018-12-13T18:16:55.511Z,-1.22
2018-12-13T18:20:01.744Z,-1.24
2018-12-13T18:23:08.266Z,-1.22
2018-12-13T18:26:14.153Z,-1.24
2018-12-13T18:29:20.010Z,-1.19
2018-12-13T18:32:26.638Z,-1.26
2018-12-13T18:35:32.504Z,-1.21
2018-12-13T18:38:38.095Z,-1.21
2018-12-13T18:41:44.282Z,-1.20
2018-12-13T18:44:50.133Z,-1.24
2018-12-13T18:47:56.014Z,-1.22
2018-12-13T18:51:01.944Z,-1.23
2018-12-13T18:54:07.812Z,-1.25
2018-12-13T18:57:13.541Z,-1.25
2018-12-13T19:00:19.131Z,-1.25
2018-12-13T19:03:24.995Z,-1.24
2018-12-13T19:06:30.595Z,-1.28
2018-12-13T19:09:37.772Z,-1.25
2018-12-13T19:12:45.303Z,-1.23
2018-12-13T19:15:51.524Z,-1.24
2018-12-13T19:18:57.959Z,-1.25
2018-12-13T19:22:05.652Z,-1.25
2018-12-13T19:25:12.116Z,-1.26
2018-12-13T19:28:20.467Z,-1.23
2018-12-13T19:31:27.597Z,-1.25
2018-12-13T19:34:34.566Z,-1.21
2018-12-13T19:37:41.638Z,-1.22
2018-12-13T19:40:48.518Z,-1.22
2018-12-13T19:43:57.811Z,-1.24
2018-12-13T19:47:05.676Z,-1.23
2018-12-13T19:50:11.930Z,-1.22
2018-12-13T19:53:19.428Z,-1.19
2018-12-13T19:56:27.013Z,-1.02
2018-12-13T19:59:34.279Z,-0.91
2018-12-13T20:02:40.252Z,-0.89
2018-12-13T20:05:45.859Z,-0.60
2018-12-13T20:08:51.814Z,-0.20
2018-12-13T20:11:57.743Z,-0.57
2018-12-13T20:15:04.337Z,-0.87
2018-12-13T20:18:10.156Z,-0.65
2018-12-13T20:21:16.187Z,-0.55
2018-12-13T20:24:22.083Z,-0.57
2018-12-13T20:27:28.061Z,-0.98
2018-12-13T20:30:34.288Z,-0.60
2018-12-13T20:33:40.349Z,-0.26
2018-12-13T20:36:46.334Z,-0.51
2018-12-13T20:39:53.300Z,-0.72
2018-12-13T20:43:00.735Z,-0.80
2018-12-13T20:46:07.514Z,-0.26
2018-12-13T20:49:15.617Z,-0.85
2018-12-13T20:52:22.791Z,-0.70
2018-12-13T20:55:29.766Z,-0.66
2018-12-13T20:58:37.692Z,-0.44
2018-12-13T21:01:43.649Z,-0.68
2018-12-13T21:04:49.784Z,-0.90
2018-12-13T21:08:00.245Z,-0.52
2018-12-13T21:11:07.633Z,-0.65
2018-12-13T21:14:13.898Z,-0.73
2018-12-13T21:17:19.491Z,-0.71
2018-12-13T21:20:25.336Z,-0.78
2018-12-13T21:23:31.213Z,-0.72
2018-12-13T21:26:36.872Z,-0.52
2018-12-13T21:29:42.724Z,-0.69
2018-12-13T21:32:48.361Z,-0.82
2018-12-13T21:35:54.439Z,-0.47
2018-12-13T21:39:00.360Z,-0.40
2018-12-13T21:42:06.884Z,-0.55
2018-12-13T21:45:13.192Z,-0.68
2018-12-13T21:48:19.078Z,-0.90
2018-12-13T21:51:24.651Z,-0.68
2018-12-13T21:54:37.553Z,-0.67
2018-12-13T21:57:43.155Z,-0.50
2018-12-13T22:00:49.055Z,-0.67
2018-12-13T22:03:54.658Z,-0.74
2018-12-13T22:07:00.527Z,-0.70
2018-12-13T22:10:07.913Z,-0.65
2018-12-13T22:13:14.838Z,-0.88
2018-12-13T22:16:20.892Z,-0.76
2018-12-13T22:19:26.810Z,-0.56
2018-12-13T22:22:33.763Z,-0.56
2018-12-13T22:25:39.631Z,-0.53
2018-12-13T22:28:45.848Z,-0.50
2018-12-13T22:31:52.313Z,-0.86
2018-12-13T22:34:57.918Z,-0.73
2018-12-13T22:38:04.052Z,-1.01
2018-12-13T22:41:10.251Z,-0.52
2018-12-13T22:44:16.150Z,-0.61
2018-12-13T22:47:21.761Z,-0.40
2018-12-13T22:50:28.147Z,-0.56
2018-12-13T22:53:35.026Z,-0.59
2018-12-13T22:56:40.913Z,-0.64
2018-12-13T22:59:46.788Z,-0.99
2018-12-13T23:02:52.387Z,-0.52
2018-12-13T23:05:58.250Z,-1.15
2018-12-13T23:09:07.745Z,-1.19
2018-12-13T23:12:15.661Z,-1.22
2018-12-13T23:15:21.260Z,-1.25
2018-12-13T23:18:27.143Z,-1.18
2018-12-13T23:21:32.707Z,-1.25
2018-12-13T23:24:38.595Z,-1.13
2018-12-13T23:27:44.899Z,-1.22
2018-12-13T23:30:50.776Z,-1.21
2018-12-13T23:33:56.647Z,-1.23
2018-12-13T23:37:02.258Z,-1.26
2018-12-13T23:40:08.914Z,-1.30
2018-12-13T23:43:14.785Z,-1.31
2018-12-13T23:46:20.352Z,-1.25
2018-12-13T23:49:26.243Z,-1.22
2018-12-13T23:52:31.835Z,-1.23
2018-12-13T23:55:38.171Z,-1.20
2018-12-13T23:58:44.675Z,-1.12
